TimeMST,TemperatureF,Dew PointF,Humidity,Sea Level PressureIn,VisibilityMPH,Wind Direction,Wind SpeedMPH,Gust SpeedMPH,PrecipitationIn,Events,Conditions,WindDirDegrees,DateUTC
12:53 AM,18.0,12.0,78,30.25,10.0,NW,3.5,-,N/A,,Clear,310,2013-03-06 07:53:00
1:53 AM,18.0,10.9,74,30.24,10.0,West,5.8,-,N/A,,Clear,270,2013-03-06 08:53:00
2:53 AM,18.0,10.0,71,30.20,10.0,WNW,4.6,-,N/A,,Clear,300,2013-03-06 09:53:00
3:53 AM,17.1,10.9,77,30.18,10.0,Calm,Calm,-,N/A,,Clear,0,2013-03-06 10:53:00
4:53 AM,17.1,10.9,77,30.18,10.0,NW,3.5,-,N/A,,Clear,310,2013-03-06 11:53:00
5:53 AM,14.0,8.1,77,30.19,10.0,Calm,Calm,-,N/A,,Clear,0,2013-03-06 12:53:00
6:53 AM,15.1,9.0,77,30.19,10.0,NW,4.6,-,N/A,,Clear,310,2013-03-06 13:53:00
7:53 AM,19.0,12.0,74,30.19,10.0,Calm,Calm,-,N/A,,Clear,0,2013-03-06 14:53:00
8:53 AM,21.0,14.0,74,30.20,10.0,SE,4.6,-,N/A,,Clear,130,2013-03-06 15:53:00
9:53 AM,23.0,14.0,68,30.19,10.0,Calm,Calm,-,N/A,,Clear,0,2013-03-06 16:53:00
10:53 AM,28.0,15.1,58,30.14,10.0,Calm,Calm,-,N/A,,Clear,0,2013-03-06 17:53:00
11:53 AM,30.0,17.1,59,30.12,10.0,Calm,Calm,-,N/A,,Clear,0,2013-03-06 18:53:00
12:53 PM,30.9,19.9,64,30.07,10.0,ESE,6.9,-,N/A,,Clear,120,2013-03-06 19:53:00
1:53 PM,33.1,19.9,59,30.03,10.0,East,4.6,-,N/A,,Clear,100,2013-03-06 20:53:00
3:53 PM,36.0,18.0,48,29.99,10.0,ENE,3.5,-,N/A,,Clear,60,2013-03-06 22:53:00
4:53 PM,37.0,17.1,44,29.97,10.0,Calm,Calm,-,N/A,,Clear,0,2013-03-06 23:53:00
5:53 PM,37.0,21.0,52,29.97,10.0,Calm,Calm,-,N/A,,Clear,0,2013-03-07 00:53:00
6:53 PM,34.0,18.0,52,29.98,10.0,NNW,4.6,-,N/A,,Clear,340,2013-03-07 01:53:00
7:53 PM,30.0,21.9,72,29.98,9.0,Calm,Calm,-,N/A,,Clear,0,2013-03-07 02:53:00
8:53 PM,28.9,21.9,75,29.98,9.0,NNW,3.5,-,N/A,,Clear,340,2013-03-07 03:53:00
9:53 PM,28.0,21.0,75,29.97,10.0,Calm,Calm,-,N/A,,Clear,0,2013-03-07 04:53:00
10:53 PM,27.0,19.9,75,29.95,10.0,West,4.6,-,N/A,,Clear,280,2013-03-07 05:53:00
11:53 PM,26.1,19.9,78,29.96,10.0,Calm,Calm,-,N/A,,Clear,0,2013-03-07 06:53:00